sensor_id;sensor_type;location;lat;lon;timestamp;noise_LAeq;noise_LA_min;noise_LA_max;noise_LA01;noise_LA95
37279;Laerm;7458;49.002;8.472;2023-08-06T00:00:26;72.78;40.53;89.50;;
37279;Laerm;7458;49.002;8.472;2023-08-06T00:02:52;72.61;40.80;89.13;;
37279;Laerm;7458;49.002;8.472;2023-08-06T00:05:18;72.23;40.33;89.06;;
37279;Laerm;7458;49.002;8.472;2023-08-06T00:07:47;72.41;40.43;89.13;;
37279;Laerm;7458;49.002;8.472;2023-08-06T00:10:14;72.33;39.92;88.78;;
37279;Laerm;7458;49.002;8.472;2023-08-06T00:12:40;72.97;41.22;89.13;;
37279;Laerm;7458;49.002;8.472;2023-08-06T00:15:06;72.39;40.13;86.90;;
37279;Laerm;7458;49.002;8.472;2023-08-06T00:17:34;72.41;40.23;86.90;;
37279;Laerm;7458;49.002;8.472;2023-08-06T00:20:00;72.51;40.43;86.63;;
37279;Laerm;7458;49.002;8.472;2023-08-06T00:22:34;72.31;40.23;89.04;;
37279;Laerm;7458;49.002;8.472;2023-08-06T00:25:01;72.99;39.70;89.13;;
37279;Laerm;7458;49.002;8.472;2023-08-06T00:27:28;72.65;40.71;88.63;;
37279;Laerm;7458;49.002;8.472;2023-08-06T00:29:53;72.75;40.53;89.13;;
37279;Laerm;7458;49.002;8.472;2023-08-06T00:32:19;72.61;40.23;86.91;;
37279;Laerm;7458;49.002;8.472;2023-08-06T00:34:45;73.12;40.80;89.04;;
37279;Laerm;7458;49.002;8.472;2023-08-06T00:37:11;73.01;41.22;89.21;;
37279;Laerm;7458;49.002;8.472;2023-08-06T00:39:37;72.25;41.06;88.79;;
37279;Laerm;7458;49.002;8.472;2023-08-06T00:42:03;72.79;40.62;86.91;;
37279;Laerm;7458;49.002;8.472;2023-08-06T00:44:29;72.38;40.98;87.07;;
37279;Laerm;7458;49.002;8.472;2023-08-06T00:46:55;72.57;40.71;86.91;;
37279;Laerm;7458;49.002;8.472;2023-08-06T00:49:21;72.24;40.62;88.68;;
37279;Laerm;7458;49.002;8.472;2023-08-06T00:51:47;73.07;41.06;89.22;;
37279;Laerm;7458;49.002;8.472;2023-08-06T00:54:14;72.49;40.53;89.21;;
37279;Laerm;7458;49.002;8.472;2023-08-06T00:56:42;72.98;40.80;87.54;;
37279;Laerm;7458;49.002;8.472;2023-08-06T00:59:10;72.95;40.89;86.91;;
37279;Laerm;7458;49.002;8.472;2023-08-06T01:01:36;73.06;40.53;89.22;;
37279;Laerm;7458;49.002;8.472;2023-08-06T01:04:02;72.87;40.80;86.90;;
37279;Laerm;7458;49.002;8.472;2023-08-06T01:06:55;72.83;40.33;91.34;;
37279;Laerm;7458;49.002;8.472;2023-08-06T01:12:34;72.91;40.23;91.79;;
37279;Laerm;7458;49.002;8.472;2023-08-06T01:15:28;73.37;40.62;89.31;;
37279;Laerm;7458;49.002;8.472;2023-08-06T01:17:55;72.96;40.80;90.20;;
37279;Laerm;7458;49.002;8.472;2023-08-06T01:20:21;72.79;40.33;88.53;;
37279;Laerm;7458;49.002;8.472;2023-08-06T01:22:46;73.18;40.43;88.55;;
37279;Laerm;7458;49.002;8.472;2023-08-06T01:25:16;72.90;39.81;88.08;;
37279;Laerm;7458;49.002;8.472;2023-08-06T01:27:48;72.67;40.71;89.22;;
37279;Laerm;7458;49.002;8.472;2023-08-06T01:30:29;73.36;40.43;88.86;;
37279;Laerm;7458;49.002;8.472;2023-08-06T01:33:02;73.65;40.43;91.79;;
37279;Laerm;7458;49.002;8.472;2023-08-06T01:35:30;73.49;40.03;91.82;;
37279;Laerm;7458;49.002;8.472;2023-08-06T01:37:59;73.87;39.81;91.79;;
37279;Laerm;7458;49.002;8.472;2023-08-06T01:40:25;72.80;40.33;91.70;;
37279;Laerm;7458;49.002;8.472;2023-08-06T01:42:53;73.29;39.46;92.70;;
37279;Laerm;7458;49.002;8.472;2023-08-06T01:45:19;72.96;40.23;91.67;;
37279;Laerm;7458;49.002;8.472;2023-08-06T01:47:44;73.38;40.03;89.14;;
37279;Laerm;7458;49.002;8.472;2023-08-06T01:50:10;73.18;40.13;90.61;;
37279;Laerm;7458;49.002;8.472;2023-08-06T01:52:36;72.81;39.58;89.04;;
37279;Laerm;7458;49.002;8.472;2023-08-06T01:55:02;72.90;40.13;89.22;;
37279;Laerm;7458;49.002;8.472;2023-08-06T01:57:28;72.94;40.03;88.75;;
37279;Laerm;7458;49.002;8.472;2023-08-06T01:59:54;72.92;40.03;91.79;;
37279;Laerm;7458;49.002;8.472;2023-08-06T02:02:20;73.46;40.33;91.79;;
37279;Laerm;7458;49.002;8.472;2023-08-06T02:04:46;72.95;39.70;91.71;;
37279;Laerm;7458;49.002;8.472;2023-08-06T02:07:12;73.06;39.34;91.79;;
37279;Laerm;7458;49.002;8.472;2023-08-06T02:09:38;73.38;38.95;91.79;;
37279;Laerm;7458;49.002;8.472;2023-08-06T02:12:04;73.78;38.21;89.22;;
37279;Laerm;7458;49.002;8.472;2023-08-06T02:14:30;73.25;38.67;91.79;;
37279;Laerm;7458;49.002;8.472;2023-08-06T02:16:56;73.54;38.37;89.13;;
37279;Laerm;7458;49.002;8.472;2023-08-06T02:19:22;73.67;38.21;89.13;;
37279;Laerm;7458;49.002;8.472;2023-08-06T02:21:48;73.73;38.21;88.76;;
37279;Laerm;7458;49.002;8.472;2023-08-06T02:24:13;75.19;37.52;89.42;;
37279;Laerm;7458;49.002;8.472;2023-08-06T02:26:39;76.77;37.70;89.22;;
37279;Laerm;7458;49.002;8.472;2023-08-06T02:29:05;77.03;37.88;89.53;;
37279;Laerm;7458;49.002;8.472;2023-08-06T02:31:30;78.67;37.52;89.43;;
37279;Laerm;7458;49.002;8.472;2023-08-06T02:33:56;79.11;37.32;89.22;;
37279;Laerm;7458;49.002;8.472;2023-08-06T02:36:24;78.91;37.70;89.25;;
37279;Laerm;7458;49.002;8.472;2023-08-06T02:38:50;80.25;39.08;91.70;;
37279;Laerm;7458;49.002;8.472;2023-08-06T02:41:15;81.37;40.13;93.53;;
37279;Laerm;7458;49.002;8.472;2023-08-06T02:43:42;88.59;40.13;98.72;;
37279;Laerm;7458;49.002;8.472;2023-08-06T02:46:07;78.19;38.95;98.22;;
37279;Laerm;7458;49.002;8.472;2023-08-06T02:48:33;40.74;38.37;46.89;;
37279;Laerm;7458;49.002;8.472;2023-08-06T02:50:59;40.83;38.81;43.81;;
37279;Laerm;7458;49.002;8.472;2023-08-06T02:53:25;41.50;38.95;45.45;;
37279;Laerm;7458;49.002;8.472;2023-08-06T02:55:51;41.49;38.67;52.47;;
37279;Laerm;7458;49.002;8.472;2023-08-06T02:58:17;42.63;38.99;65.36;;
37279;Laerm;7458;49.002;8.472;2023-08-06T03:00:59;41.90;38.81;55.74;;
37279;Laerm;7458;49.002;8.472;2023-08-06T03:03:25;41.19;38.81;51.71;;
37279;Laerm;7458;49.002;8.472;2023-08-06T03:05:54;40.68;38.81;48.05;;
37279;Laerm;7458;49.002;8.472;2023-08-06T03:08:20;43.38;36.91;69.84;;
37279;Laerm;7458;49.002;8.472;2023-08-06T03:10:49;40.26;37.70;43.68;;
37279;Laerm;7458;49.002;8.472;2023-08-06T03:13:19;40.76;37.88;57.51;;
37279;Laerm;7458;49.002;8.472;2023-08-06T03:15:59;42.49;38.37;66.65;;
37279;Laerm;7458;49.002;8.472;2023-08-06T03:18:25;41.95;38.81;60.99;;
37279;Laerm;7458;49.002;8.472;2023-08-06T03:20:54;41.02;38.81;44.51;;
37279;Laerm;7458;49.002;8.472;2023-08-06T03:23:20;40.71;37.52;54.66;;
37279;Laerm;7458;49.002;8.472;2023-08-06T03:25:46;41.15;37.87;59.04;;
37279;Laerm;7458;49.002;8.472;2023-08-06T03:28:12;40.98;38.67;45.66;;
37279;Laerm;7458;49.002;8.472;2023-08-06T03:30:38;40.92;37.70;60.03;;
37279;Laerm;7458;49.002;8.472;2023-08-06T03:33:04;40.47;38.05;43.90;;
37279;Laerm;7458;49.002;8.472;2023-08-06T03:35:30;40.90;38.21;43.77;;
37279;Laerm;7458;49.002;8.472;2023-08-06T03:37:56;40.79;38.18;44.31;;
37279;Laerm;7458;49.002;8.472;2023-08-06T03:40:22;42.83;38.05;56.15;;
37279;Laerm;7458;49.002;8.472;2023-08-06T03:42:48;41.31;38.21;44.90;;
37279;Laerm;7458;49.002;8.472;2023-08-06T03:45:14;40.98;38.37;47.65;;
37279;Laerm;7458;49.002;8.472;2023-08-06T03:47:40;42.72;38.37;57.27;;
37279;Laerm;7458;49.002;8.472;2023-08-06T03:50:06;42.83;38.81;60.26;;
37279;Laerm;7458;49.002;8.472;2023-08-06T03:52:32;41.26;37.52;57.52;;
37279;Laerm;7458;49.002;8.472;2023-08-06T03:54:58;40.50;37.52;45.36;;
37279;Laerm;7458;49.002;8.472;2023-08-06T03:57:23;40.94;38.21;52.36;;
37279;Laerm;7458;49.002;8.472;2023-08-06T03:59:50;40.96;37.88;47.86;;
37279;Laerm;7458;49.002;8.472;2023-08-06T04:02:15;41.78;38.37;49.65;;
37279;Laerm;7458;49.002;8.472;2023-08-06T04:04:41;40.42;37.88;46.30;;
37279;Laerm;7458;49.002;8.472;2023-08-06T04:07:07;41.03;37.70;50.45;;
37279;Laerm;7458;49.002;8.472;2023-08-06T04:09:33;45.88;37.88;72.17;;
37279;Laerm;7458;49.002;8.472;2023-08-06T04:11:59;40.65;36.69;53.76;;
37279;Laerm;7458;49.002;8.472;2023-08-06T04:14:27;41.12;37.12;51.27;;
37279;Laerm;7458;49.002;8.472;2023-08-06T04:16:53;40.61;37.32;45.45;;
37279;Laerm;7458;49.002;8.472;2023-08-06T04:19:19;40.45;37.88;46.66;;
37279;Laerm;7458;49.002;8.472;2023-08-06T04:21:44;40.43;37.32;46.35;;
37279;Laerm;7458;49.002;8.472;2023-08-06T04:24:10;40.92;38.21;48.80;;
37279;Laerm;7458;49.002;8.472;2023-08-06T04:26:36;41.23;36.20;61.39;;
37279;Laerm;7458;49.002;8.472;2023-08-06T04:29:02;40.39;37.52;46.55;;
37279;Laerm;7458;49.002;8.472;2023-08-06T04:31:29;40.62;36.91;50.64;;
37279;Laerm;7458;49.002;8.472;2023-08-06T04:33:55;41.99;37.70;63.73;;
37279;Laerm;7458;49.002;8.472;2023-08-06T04:36:21;41.07;38.18;46.50;;
37279;Laerm;7458;49.002;8.472;2023-08-06T04:38:47;42.79;35.66;60.52;;
37279;Laerm;7458;49.002;8.472;2023-08-06T04:41:13;40.91;38.37;44.58;;
37279;Laerm;7458;49.002;8.472;2023-08-06T04:43:39;40.96;37.35;54.75;;
37279;Laerm;7458;49.002;8.472;2023-08-06T04:46:05;41.12;37.88;45.14;;
37279;Laerm;7458;49.002;8.472;2023-08-06T04:48:31;50.23;38.52;79.60;;
37279;Laerm;7458;49.002;8.472;2023-08-06T04:50:57;41.14;38.37;47.55;;
37279;Laerm;7458;49.002;8.472;2023-08-06T04:53:23;41.16;38.21;53.24;;
37279;Laerm;7458;49.002;8.472;2023-08-06T04:55:49;41.77;38.05;51.40;;
37279;Laerm;7458;49.002;8.472;2023-08-06T04:58:15;41.09;38.37;61.03;;
37279;Laerm;7458;49.002;8.472;2023-08-06T05:00:41;41.79;38.81;55.36;;
37279;Laerm;7458;49.002;8.472;2023-08-06T05:03:07;41.19;38.67;47.38;;
37279;Laerm;7458;49.002;8.472;2023-08-06T05:05:33;44.24;37.88;70.32;;
37279;Laerm;7458;49.002;8.472;2023-08-06T05:07:59;41.14;37.70;45.20;;
37279;Laerm;7458;49.002;8.472;2023-08-06T05:10:25;42.29;38.81;59.09;;
37279;Laerm;7458;49.002;8.472;2023-08-06T05:12:52;44.30;38.21;70.25;;
37279;Laerm;7458;49.002;8.472;2023-08-06T05:15:18;41.43;37.70;53.39;;
37279;Laerm;7458;49.002;8.472;2023-08-06T05:17:44;43.02;37.70;71.03;;
37279;Laerm;7458;49.002;8.472;2023-08-06T05:20:11;41.69;37.88;59.72;;
37279;Laerm;7458;49.002;8.472;2023-08-06T05:22:37;41.93;38.05;56.73;;
37279;Laerm;7458;49.002;8.472;2023-08-06T05:25:03;42.29;39.34;55.03;;
37279;Laerm;7458;49.002;8.472;2023-08-06T05:27:29;42.40;39.08;55.24;;
37279;Laerm;7458;49.002;8.472;2023-08-06T05:29:56;42.09;38.21;48.84;;
37279;Laerm;7458;49.002;8.472;2023-08-06T05:32:22;43.58;38.21;59.58;;
37279;Laerm;7458;49.002;8.472;2023-08-06T05:34:48;44.25;38.67;68.03;;
37279;Laerm;7458;49.002;8.472;2023-08-06T05:37:15;41.85;38.52;56.61;;
37279;Laerm;7458;49.002;8.472;2023-08-06T05:39:40;42.38;37.88;55.87;;
37279;Laerm;7458;49.002;8.472;2023-08-06T05:42:07;41.63;37.88;45.89;;
37279;Laerm;7458;49.002;8.472;2023-08-06T05:44:33;41.50;37.70;64.18;;
37279;Laerm;7458;49.002;8.472;2023-08-06T05:46:59;41.56;38.47;60.94;;
37279;Laerm;7458;49.002;8.472;2023-08-06T05:49:25;41.31;38.81;45.48;;
37279;Laerm;7458;49.002;8.472;2023-08-06T05:51:51;45.72;39.34;74.50;;
37279;Laerm;7458;49.002;8.472;2023-08-06T05:54:19;56.37;38.37;76.59;;
37279;Laerm;7458;49.002;8.472;2023-08-06T05:56:45;55.46;39.08;79.63;;
37279;Laerm;7458;49.002;8.472;2023-08-06T05:59:11;43.17;39.46;59.82;;
37279;Laerm;7458;49.002;8.472;2023-08-06T06:01:37;43.79;39.21;55.05;;
37279;Laerm;7458;49.002;8.472;2023-08-06T06:04:03;45.27;38.95;73.91;;
37279;Laerm;7458;49.002;8.472;2023-08-06T06:06:29;42.33;38.52;53.39;;
37279;Laerm;7458;49.002;8.472;2023-08-06T06:08:55;41.87;39.21;52.08;;
37279;Laerm;7458;49.002;8.472;2023-08-06T06:11:22;44.42;39.21;63.27;;
37279;Laerm;7458;49.002;8.472;2023-08-06T06:13:50;43.15;39.99;53.25;;
37279;Laerm;7458;49.002;8.472;2023-08-06T06:16:17;43.79;39.81;72.85;;
37279;Laerm;7458;49.002;8.472;2023-08-06T06:18:43;43.33;39.92;53.27;;
37279;Laerm;7458;49.002;8.472;2023-08-06T06:21:09;42.20;39.46;58.63;;
37279;Laerm;7458;49.002;8.472;2023-08-06T06:23:36;45.34;39.81;73.86;;
37279;Laerm;7458;49.002;8.472;2023-08-06T06:26:02;45.03;39.34;58.95;;
37279;Laerm;7458;49.002;8.472;2023-08-06T06:28:28;47.46;40.33;67.52;;
37279;Laerm;7458;49.002;8.472;2023-08-06T06:30:54;43.37;38.05;67.08;;
37279;Laerm;7458;49.002;8.472;2023-08-06T06:33:25;42.82;39.58;56.57;;
37279;Laerm;7458;49.002;8.472;2023-08-06T06:35:51;49.64;39.81;77.10;;
37279;Laerm;7458;49.002;8.472;2023-08-06T06:38:16;46.83;39.46;74.03;;
37279;Laerm;7458;49.002;8.472;2023-08-06T06:40:42;44.93;40.53;61.80;;
37279;Laerm;7458;49.002;8.472;2023-08-06T06:43:08;44.20;40.43;61.11;;
37279;Laerm;7458;49.002;8.472;2023-08-06T06:45:34;51.72;41.06;81.01;;
37279;Laerm;7458;49.002;8.472;2023-08-06T06:48:00;46.10;40.23;65.92;;
37279;Laerm;7458;49.002;8.472;2023-08-06T06:50:26;42.50;39.21;45.72;;
37279;Laerm;7458;49.002;8.472;2023-08-06T06:52:52;46.29;40.63;64.99;;
37279;Laerm;7458;49.002;8.472;2023-08-06T06:55:18;45.05;41.46;58.08;;
37279;Laerm;7458;49.002;8.472;2023-08-06T06:57:44;44.07;40.43;57.77;;
37279;Laerm;7458;49.002;8.472;2023-08-06T07:00:11;44.88;40.43;61.50;;
37279;Laerm;7458;49.002;8.472;2023-08-06T07:02:37;44.12;40.89;54.20;;
37279;Laerm;7458;49.002;8.472;2023-08-06T07:05:03;46.70;40.71;73.33;;
37279;Laerm;7458;49.002;8.472;2023-08-06T07:07:29;47.08;41.30;68.09;;
37279;Laerm;7458;49.002;8.472;2023-08-06T07:09:55;49.17;41.06;70.09;;
37279;Laerm;7458;49.002;8.472;2023-08-06T07:12:21;46.18;41.03;59.11;;
37279;Laerm;7458;49.002;8.472;2023-08-06T07:14:48;44.73;40.23;60.73;;
37279;Laerm;7458;49.002;8.472;2023-08-06T07:17:15;43.63;41.46;49.53;;
37279;Laerm;7458;49.002;8.472;2023-08-06T07:19:40;43.18;40.03;48.85;;
37279;Laerm;7458;49.002;8.472;2023-08-06T07:22:07;45.40;40.43;57.96;;
37279;Laerm;7458;49.002;8.472;2023-08-06T07:24:33;44.29;40.27;54.07;;
37279;Laerm;7458;49.002;8.472;2023-08-06T07:26:59;45.41;40.43;57.99;;
37279;Laerm;7458;49.002;8.472;2023-08-06T07:29:31;46.88;40.62;69.00;;
37279;Laerm;7458;49.002;8.472;2023-08-06T07:31:57;46.70;40.03;63.02;;
37279;Laerm;7458;49.002;8.472;2023-08-06T07:34:23;47.60;41.14;75.16;;
37279;Laerm;7458;49.002;8.472;2023-08-06T07:36:49;50.81;40.80;65.88;;
37279;Laerm;7458;49.002;8.472;2023-08-06T07:39:18;46.26;41.61;61.01;;
37279;Laerm;7458;49.002;8.472;2023-08-06T07:41:45;43.81;40.13;57.51;;
37279;Laerm;7458;49.002;8.472;2023-08-06T07:44:12;47.51;41.30;62.69;;
37279;Laerm;7458;49.002;8.472;2023-08-06T07:46:38;48.45;41.22;65.90;;
37279;Laerm;7458;49.002;8.472;2023-08-06T07:49:05;43.07;40.53;52.97;;
37279;Laerm;7458;49.002;8.472;2023-08-06T07:51:31;49.50;42.82;63.32;;
37279;Laerm;7458;49.002;8.472;2023-08-06T07:53:57;47.56;42.82;65.72;;
37279;Laerm;7458;49.002;8.472;2023-08-06T07:56:23;51.63;43.34;77.67;;
37279;Laerm;7458;49.002;8.472;2023-08-06T07:58:49;51.38;42.65;68.91;;
37279;Laerm;7458;49.002;8.472;2023-08-06T08:01:15;47.31;40.98;66.86;;
37279;Laerm;7458;49.002;8.472;2023-08-06T08:03:41;46.73;40.62;64.28;;
37279;Laerm;7458;49.002;8.472;2023-08-06T08:06:07;51.32;41.46;68.58;;
37279;Laerm;7458;49.002;8.472;2023-08-06T08:08:32;48.82;40.80;65.17;;
37279;Laerm;7458;49.002;8.472;2023-08-06T08:10:58;50.00;41.14;68.69;;
37279;Laerm;7458;49.002;8.472;2023-08-06T08:13:26;49.67;41.96;63.43;;
37279;Laerm;7458;49.002;8.472;2023-08-06T08:15:57;55.72;41.89;72.16;;
37279;Laerm;7458;49.002;8.472;2023-08-06T08:18:24;45.29;41.38;69.02;;
37279;Laerm;7458;49.002;8.472;2023-08-06T08:20:50;55.87;42.65;73.88;;
37279;Laerm;7458;49.002;8.472;2023-08-06T08:23:16;54.97;41.22;71.36;;
37279;Laerm;7458;49.002;8.472;2023-08-06T08:25:42;54.12;41.38;75.74;;
37279;Laerm;7458;49.002;8.472;2023-08-06T08:28:08;57.90;40.43;86.19;;
37279;Laerm;7458;49.002;8.472;2023-08-06T08:30:34;45.69;40.98;67.06;;
37279;Laerm;7458;49.002;8.472;2023-08-06T08:32:59;46.57;40.98;68.64;;
37279;Laerm;7458;49.002;8.472;2023-08-06T08:35:25;45.97;41.14;62.01;;
37279;Laerm;7458;49.002;8.472;2023-08-06T08:37:51;49.40;40.98;65.79;;
37279;Laerm;7458;49.002;8.472;2023-08-06T08:40:17;51.36;41.22;70.76;;
37279;Laerm;7458;49.002;8.472;2023-08-06T08:42:43;46.24;41.30;72.61;;
37279;Laerm;7458;49.002;8.472;2023-08-06T08:45:15;45.51;41.68;60.55;;
37279;Laerm;7458;49.002;8.472;2023-08-06T08:47:43;44.09;41.06;54.35;;
37279;Laerm;7458;49.002;8.472;2023-08-06T08:50:11;49.52;41.75;64.36;;
37279;Laerm;7458;49.002;8.472;2023-08-06T08:52:39;48.66;41.82;65.61;;
37279;Laerm;7458;49.002;8.472;2023-08-06T08:55:07;44.30;40.80;56.46;;
37279;Laerm;7458;49.002;8.472;2023-08-06T08:57:34;52.85;42.03;72.14;;
37279;Laerm;7458;49.002;8.472;2023-08-06T09:00:00;45.06;41.61;64.99;;
37279;Laerm;7458;49.002;8.472;2023-08-06T09:02:28;45.61;41.22;61.31;;
37279;Laerm;7458;49.002;8.472;2023-08-06T09:05:00;58.99;41.96;81.20;;
37279;Laerm;7458;49.002;8.472;2023-08-06T09:07:40;55.62;42.03;76.20;;
37279;Laerm;7458;49.002;8.472;2023-08-06T09:10:10;50.25;41.61;64.79;;
37279;Laerm;7458;49.002;8.472;2023-08-06T09:12:37;51.77;41.30;74.56;;
37279;Laerm;7458;49.002;8.472;2023-08-06T09:15:03;48.71;41.89;70.57;;
37279;Laerm;7458;49.002;8.472;2023-08-06T09:17:29;57.03;41.14;82.48;;
37279;Laerm;7458;49.002;8.472;2023-08-06T09:19:55;51.44;42.09;73.03;;
37279;Laerm;7458;49.002;8.472;2023-08-06T09:22:21;46.48;41.68;62.84;;
37279;Laerm;7458;49.002;8.472;2023-08-06T09:24:47;50.96;42.09;67.31;;
37279;Laerm;7458;49.002;8.472;2023-08-06T09:27:14;44.55;41.46;58.05;;
37279;Laerm;7458;49.002;8.472;2023-08-06T09:29:46;52.88;40.62;69.36;;
37279;Laerm;7458;49.002;8.472;2023-08-06T09:32:13;51.30;40.80;68.11;;
37279;Laerm;7458;49.002;8.472;2023-08-06T09:34:41;54.55;40.89;73.88;;
37279;Laerm;7458;49.002;8.472;2023-08-06T09:37:09;47.82;40.98;65.01;;
37279;Laerm;7458;49.002;8.472;2023-08-06T09:39:40;46.11;41.61;66.91;;
37279;Laerm;7458;49.002;8.472;2023-08-06T09:42:07;53.16;42.22;80.48;;
37279;Laerm;7458;49.002;8.472;2023-08-06T09:44:33;50.85;42.35;66.32;;
37279;Laerm;7458;49.002;8.472;2023-08-06T09:47:03;45.63;42.35;68.90;;
37279;Laerm;7458;49.002;8.472;2023-08-06T09:49:42;45.97;41.81;59.71;;
37279;Laerm;7458;49.002;8.472;2023-08-06T09:52:14;50.69;42.47;67.04;;
37279;Laerm;7458;49.002;8.472;2023-08-06T09:54:43;48.46;42.29;76.51;;
37279;Laerm;7458;49.002;8.472;2023-08-06T09:57:10;49.99;42.71;78.11;;
37279;Laerm;7458;49.002;8.472;2023-08-06T09:59:38;47.10;43.19;67.33;;
37279;Laerm;7458;49.002;8.472;2023-08-06T10:02:13;48.62;43.09;67.80;;
37279;Laerm;7458;49.002;8.472;2023-08-06T10:04:39;47.60;42.71;63.56;;
37279;Laerm;7458;49.002;8.472;2023-08-06T10:07:06;49.88;42.41;67.47;;
37279;Laerm;7458;49.002;8.472;2023-08-06T10:09:32;49.10;42.35;65.42;;
37279;Laerm;7458;49.002;8.472;2023-08-06T10:11:58;47.85;42.09;66.18;;
37279;Laerm;7458;49.002;8.472;2023-08-06T10:14:32;50.75;42.29;80.09;;
37279;Laerm;7458;49.002;8.472;2023-08-06T10:17:00;52.30;43.29;79.68;;
37279;Laerm;7458;49.002;8.472;2023-08-06T10:19:29;51.35;42.35;70.47;;
37279;Laerm;7458;49.002;8.472;2023-08-06T10:22:15;54.21;43.90;81.46;;
37279;Laerm;7458;49.002;8.472;2023-08-06T10:24:53;48.81;43.24;72.49;;
37279;Laerm;7458;49.002;8.472;2023-08-06T10:27:40;45.63;42.22;65.52;;
37279;Laerm;7458;49.002;8.472;2023-08-06T10:30:29;44.79;41.89;59.09;;
37279;Laerm;7458;49.002;8.472;2023-08-06T10:33:03;45.94;41.82;60.65;;
37279;Laerm;7458;49.002;8.472;2023-08-06T10:35:47;50.37;41.82;67.82;;
37279;Laerm;7458;49.002;8.472;2023-08-06T10:38:20;74.75;40.63;89.52;;
37279;Laerm;7458;49.002;8.472;2023-08-06T10:45:58;80.71;41.89;93.48;;
37279;Laerm;7458;49.002;8.472;2023-08-06T10:48:34;80.85;41.53;93.07;;
37279;Laerm;7458;49.002;8.472;2023-08-06T10:51:01;81.13;42.00;93.37;;
37279;Laerm;7458;49.002;8.472;2023-08-06T10:53:27;82.96;41.96;96.44;;
37279;Laerm;7458;49.002;8.472;2023-08-06T10:55:54;83.64;42.09;96.59;;
37279;Laerm;7458;49.002;8.472;2023-08-06T10:58:19;86.09;42.35;97.22;;
37279;Laerm;7458;49.002;8.472;2023-08-06T11:00:46;85.14;42.41;97.22;;
37279;Laerm;7458;49.002;8.472;2023-08-06T11:03:12;85.05;42.03;98.69;;
37279;Laerm;7458;49.002;8.472;2023-08-06T11:05:39;83.65;42.95;96.54;;
37279;Laerm;7458;49.002;8.472;2023-08-06T11:08:04;84.09;42.93;96.40;;
37279;Laerm;7458;49.002;8.472;2023-08-06T11:10:33;84.74;43.14;96.62;;
37279;Laerm;7458;49.002;8.472;2023-08-06T11:13:03;86.09;43.44;97.38;;
37279;Laerm;7458;49.002;8.472;2023-08-06T11:15:30;81.89;43.00;92.76;;
37279;Laerm;7458;49.002;8.472;2023-08-06T11:17:58;81.91;43.34;92.82;;
37279;Laerm;7458;49.002;8.472;2023-08-06T11:20:24;81.43;42.47;91.95;;
37279;Laerm;7458;49.002;8.472;2023-08-06T11:22:50;81.85;42.41;93.48;;
37279;Laerm;7458;49.002;8.472;2023-08-06T11:25:20;82.06;46.71;94.64;;
37279;Laerm;7458;49.002;8.472;2023-08-06T11:27:46;83.92;42.47;96.60;;
37279;Laerm;7458;49.002;8.472;2023-08-06T11:30:12;85.17;42.47;96.94;;
37279;Laerm;7458;49.002;8.472;2023-08-06T11:32:48;76.27;42.65;94.99;;
37279;Laerm;7458;49.002;8.472;2023-08-06T11:35:15;70.99;41.38;94.70;;
37279;Laerm;7458;49.002;8.472;2023-08-06T11:37:46;48.87;42.22;71.21;;
37279;Laerm;7458;49.002;8.472;2023-08-06T11:40:14;48.24;41.75;64.96;;
37279;Laerm;7458;49.002;8.472;2023-08-06T11:42:40;46.77;42.03;61.99;;
37279;Laerm;7458;49.002;8.472;2023-08-06T11:45:08;49.04;41.68;65.58;;
37279;Laerm;7458;49.002;8.472;2023-08-06T11:47:38;49.85;41.14;68.30;;
37279;Laerm;7458;49.002;8.472;2023-08-06T11:50:08;46.24;42.16;58.77;;
37279;Laerm;7458;49.002;8.472;2023-08-06T11:52:33;48.27;42.88;63.81;;
37279;Laerm;7458;49.002;8.472;2023-08-06T11:57:37;45.77;40.33;59.67;;
37279;Laerm;7458;49.002;8.472;2023-08-06T12:00:12;49.75;42.58;65.03;;
37279;Laerm;7458;49.002;8.472;2023-08-06T12:02:41;44.45;41.89;53.82;;
37279;Laerm;7458;49.002;8.472;2023-08-06T12:05:14;47.66;42.35;63.40;;
37279;Laerm;7458;49.002;8.472;2023-08-06T12:07:47;50.63;43.04;64.89;;
37279;Laerm;7458;49.002;8.472;2023-08-06T12:10:17;47.18;42.47;63.06;;
37279;Laerm;7458;49.002;8.472;2023-08-06T12:12:45;49.94;42.59;64.49;;
37279;Laerm;7458;49.002;8.472;2023-08-06T12:15:12;49.55;40.89;63.61;;
37279;Laerm;7458;49.002;8.472;2023-08-06T12:17:38;46.78;41.38;61.71;;
37279;Laerm;7458;49.002;8.472;2023-08-06T12:20:06;49.57;41.46;66.15;;
37279;Laerm;7458;49.002;8.472;2023-08-06T12:22:33;46.65;42.29;60.57;;
37279;Laerm;7458;49.002;8.472;2023-08-06T12:25:06;48.42;42.65;60.97;;
37279;Laerm;7458;49.002;8.472;2023-08-06T12:27:41;49.79;42.16;68.62;;
37279;Laerm;7458;49.002;8.472;2023-08-06T12:30:09;46.96;42.41;59.76;;
37279;Laerm;7458;49.002;8.472;2023-08-06T12:32:35;48.47;42.76;68.47;;
37279;Laerm;7458;49.002;8.472;2023-08-06T12:35:01;51.31;42.53;63.87;;
37279;Laerm;7458;49.002;8.472;2023-08-06T12:37:28;47.82;41.53;60.90;;
37279;Laerm;7458;49.002;8.472;2023-08-06T12:39:54;48.80;41.22;65.00;;
37279;Laerm;7458;49.002;8.472;2023-08-06T12:42:20;45.61;41.96;63.11;;
37279;Laerm;7458;49.002;8.472;2023-08-06T12:44:48;47.09;41.30;63.09;;
37279;Laerm;7458;49.002;8.472;2023-08-06T12:47:14;46.85;42.09;61.68;;
37279;Laerm;7458;49.002;8.472;2023-08-06T12:49:39;47.96;41.89;64.52;;
37279;Laerm;7458;49.002;8.472;2023-08-06T12:52:05;45.95;42.29;62.98;;
37279;Laerm;7458;49.002;8.472;2023-08-06T12:54:33;49.66;42.41;64.02;;
37279;Laerm;7458;49.002;8.472;2023-08-06T12:57:03;46.78;43.19;60.03;;
37279;Laerm;7458;49.002;8.472;2023-08-06T12:59:29;48.78;42.88;65.14;;
37279;Laerm;7458;49.002;8.472;2023-08-06T13:01:55;51.08;42.71;65.94;;
37279;Laerm;7458;49.002;8.472;2023-08-06T13:04:21;48.70;42.03;68.13;;
37279;Laerm;7458;49.002;8.472;2023-08-06T13:06:47;46.32;42.53;55.54;;
37279;Laerm;7458;49.002;8.472;2023-08-06T13:09:13;48.67;42.35;67.25;;
37279;Laerm;7458;49.002;8.472;2023-08-06T13:11:42;45.28;42.35;54.91;;
37279;Laerm;7458;49.002;8.472;2023-08-06T13:14:13;48.77;43.04;64.55;;
37279;Laerm;7458;49.002;8.472;2023-08-06T13:16:42;49.68;43.34;68.36;;
37279;Laerm;7458;49.002;8.472;2023-08-06T13:19:09;45.22;41.96;53.83;;
37279;Laerm;7458;49.002;8.472;2023-08-06T13:22:00;52.08;42.29;69.16;;
37279;Laerm;7458;49.002;8.472;2023-08-06T13:24:32;52.75;43.54;64.58;;
37279;Laerm;7458;49.002;8.472;2023-08-06T13:26:58;47.42;42.03;62.46;;
37279;Laerm;7458;49.002;8.472;2023-08-06T13:29:25;44.86;42.22;56.55;;
37279;Laerm;7458;49.002;8.472;2023-08-06T13:31:51;48.03;42.98;60.03;;
37279;Laerm;7458;49.002;8.472;2023-08-06T13:34:17;45.41;42.09;56.25;;
37279;Laerm;7458;49.002;8.472;2023-08-06T13:36:42;49.00;42.41;65.26;;
37279;Laerm;7458;49.002;8.472;2023-08-06T13:39:08;47.73;42.35;64.09;;
37279;Laerm;7458;49.002;8.472;2023-08-06T13:41:34;48.75;41.55;65.22;;
37279;Laerm;7458;49.002;8.472;2023-08-06T13:44:00;45.40;42.47;63.02;;
37279;Laerm;7458;49.002;8.472;2023-08-06T13:46:26;54.84;42.16;81.33;;
37279;Laerm;7458;49.002;8.472;2023-08-06T13:48:51;49.81;42.47;63.86;;
37279;Laerm;7458;49.002;8.472;2023-08-06T13:51:18;50.04;42.82;67.99;;
37279;Laerm;7458;49.002;8.472;2023-08-06T13:53:44;46.01;41.75;57.51;;
37279;Laerm;7458;49.002;8.472;2023-08-06T13:56:11;50.07;42.16;62.85;;
37279;Laerm;7458;49.002;8.472;2023-08-06T13:58:37;49.65;42.29;70.00;;
37279;Laerm;7458;49.002;8.472;2023-08-06T14:01:04;50.23;43.14;72.47;;
37279;Laerm;7458;49.002;8.472;2023-08-06T14:03:29;47.49;42.53;58.32;;
37279;Laerm;7458;49.002;8.472;2023-08-06T14:05:55;49.06;43.24;67.49;;
37279;Laerm;7458;49.002;8.472;2023-08-06T14:08:23;47.91;42.65;61.13;;